الصفحة الرئيسية
METAR-TAF:

METAR-TAF

مطار :

مطار ديوري حماني

نيامي, النيجر

دائرة عرض: 13-29N, خط طول: 002-10E, ارتفاع: 223 متر

مراقبة الطقس الحالي

تاريخ ووقت الإصدار 33 دقيقة قبل الساعة 22:00UTC
ريح 4 عقدة من الشمال, الاتجاه يتراوح بين الشمال و الشرق/الشمال الشرقي
درجة الحرارة 30°درجة مئوية
الرطوبة 7%
ضغط 1010 hPa

METAR: DRRN 232200Z AUTO 01004KT 350V060 R09/1300N 30/M09 Q1010

زمن: 23:33 (22:33 UTC)

توقعات

تاريخ ووقت الإصدار 5ساعات و 33 دقيقة قبل الساعة 17:00UTC
التوقعات صالحة من23 الساعة 18 UTC إلى 24 الساعة 24 UTC
ريح 6 عقدة من الشمال
الرؤية: 8000 متر
نظرية الاحتمالات 30%
من 23 الساعة 18 UTC إلى 23 الساعة 20 UTC
الرؤية: 4800 متر
العجاج
نظرية الاحتمالات 30% :
مؤقت
من 24 الساعة 08 UTC إلى 24 الساعة 12 UTC
ريح 16 عقدة من الشمال/الشمال الشرقي
الرؤية: 4000 متر
هبوب الغبار

TAF: DRRN 231700Z 2318/2424 01006KT 8000 NSC PROB30 2318/2320 4800 HZ PROB30 TEMPO 2408/2412 02016KT 4000 BLDU

أرصاد الطقس والتوقعات من أكثر من 4000 مطار (تقارير الطقس للمطار METAR والتنبؤ بالطقس بالمطارTAF).

المحطات المتاحة هي النقط الصفراء والحمراء على الخريطة.

حرك المؤشر فوق النقطة لمعرفة اسم المحطة.

ثم انقر لمعرفة أرصاد وتوقعات الطقس.

لتغيير الخارطة: اضغط على الأزرار الخضراء مع رمز الصليب الأسود للتكبير. على الزر الأخضر مع شرطة للتصغير، أو على الأسهم الخضراء للخرائط المجاورة.


METAR-TAF: